sensor_id;sensor_type;location;lat;lon;timestamp;pressure;altitude;pressure_sealevel;temperature;humidity
51053;BME280;37093;37.716;-122.060;2023-04-20T00:02:17;100616.04;;;17.87;28.50
51053;BME280;37093;37.716;-122.060;2023-04-20T00:04:45;100612.68;;;18.56;27.96
51053;BME280;37093;37.716;-122.060;2023-04-20T00:07:14;100614.05;;;18.18;28.06
51053;BME280;37093;37.716;-122.060;2023-04-20T00:09:42;100613.83;;;18.34;28.28
51053;BME280;37093;37.716;-122.060;2023-04-20T00:12:11;100619.37;;;18.28;28.15
51053;BME280;37093;37.716;-122.060;2023-04-20T00:14:39;100614.61;;;18.59;27.84
51053;BME280;37093;37.716;-122.060;2023-04-20T00:17:08;100617.69;;;18.65;27.60
51053;BME280;37093;37.716;-122.060;2023-04-20T00:19:37;100613.36;;;18.90;26.96
51053;BME280;37093;37.716;-122.060;2023-04-20T00:22:05;100611.52;;;18.84;26.90
51053;BME280;37093;37.716;-122.060;2023-04-20T00:24:33;100615.62;;;19.28;27.32
51053;BME280;37093;37.716;-122.060;2023-04-20T00:27:02;100619.28;;;18.81;26.67
51053;BME280;37093;37.716;-122.060;2023-04-20T00:29:31;100623.37;;;18.13;28.37
51053;BME280;37093;37.716;-122.060;2023-04-20T00:31:59;100622.40;;;17.93;28.35
51053;BME280;37093;37.716;-122.060;2023-04-20T00:34:27;100622.81;;;18.25;28.27
51053;BME280;37093;37.716;-122.060;2023-04-20T00:36:56;100625.38;;;18.65;27.95
51053;BME280;37093;37.716;-122.060;2023-04-20T00:39:24;100626.08;;;18.71;27.35
51053;BME280;37093;37.716;-122.060;2023-04-20T00:41:53;100628.48;;;18.40;27.92
51053;BME280;37093;37.716;-122.060;2023-04-20T00:44:22;100632.15;;;17.93;28.65
51053;BME280;37093;37.716;-122.060;2023-04-20T00:46:50;100624.16;;;17.83;29.74
51053;BME280;37093;37.716;-122.060;2023-04-20T00:49:19;100631.07;;;17.76;29.78
51053;BME280;37093;37.716;-122.060;2023-04-20T00:51:48;100626.98;;;17.84;29.18
51053;BME280;37093;37.716;-122.060;2023-04-20T00:54:17;100626.73;;;18.82;27.71
51053;BME280;37093;37.716;-122.060;2023-04-20T00:56:45;100629.18;;;18.92;28.34
51053;BME280;37093;37.716;-122.060;2023-04-20T00:59:13;100622.28;;;19.12;28.20
51053;BME280;37093;37.716;-122.060;2023-04-20T01:01:42;100632.43;;;18.74;28.32
51053;BME280;37093;37.716;-122.060;2023-04-20T01:04:11;100635.06;;;18.62;28.07
51053;BME280;37093;37.716;-122.060;2023-04-20T01:06:39;100636.94;;;18.84;28.04
51053;BME280;37093;37.716;-122.060;2023-04-20T01:09:08;100637.76;;;18.12;28.81
51053;BME280;37093;37.716;-122.060;2023-04-20T01:11:36;100633.68;;;17.64;29.37
51053;BME280;37093;37.716;-122.060;2023-04-20T01:14:05;100638.23;;;16.44;31.06
51053;BME280;37093;37.716;-122.060;2023-04-20T01:16:33;100635.62;;;17.63;29.56
51053;BME280;37093;37.716;-122.060;2023-04-20T01:19:02;100632.89;;;18.04;29.06
51053;BME280;37093;37.716;-122.060;2023-04-20T01:21:31;100628.80;;;17.63;29.88
51053;BME280;37093;37.716;-122.060;2023-04-20T01:24:00;100626.41;;;17.36;30.72
51053;BME280;37093;37.716;-122.060;2023-04-20T01:26:28;100632.62;;;17.68;29.63
51053;BME280;37093;37.716;-122.060;2023-04-20T01:28:57;100637.08;;;18.17;29.32
51053;BME280;37093;37.716;-122.060;2023-04-20T01:31:25;100635.06;;;17.69;29.63
51053;BME280;37093;37.716;-122.060;2023-04-20T01:33:54;100637.44;;;18.25;29.23
51053;BME280;37093;37.716;-122.060;2023-04-20T01:36:22;100636.45;;;18.10;28.51
51053;BME280;37093;37.716;-122.060;2023-04-20T01:38:52;100635.77;;;17.71;29.58
51053;BME280;37093;37.716;-122.060;2023-04-20T01:41:21;100637.67;;;18.55;28.56
51053;BME280;37093;37.716;-122.060;2023-04-20T01:43:49;100639.60;;;18.33;29.01
51053;BME280;37093;37.716;-122.060;2023-04-20T01:46:18;100635.45;;;17.25;30.17
51053;BME280;37093;37.716;-122.060;2023-04-20T01:48:46;100635.49;;;17.75;29.87
51053;BME280;37093;37.716;-122.060;2023-04-20T01:51:15;100634.25;;;17.92;28.99
51053;BME280;37093;37.716;-122.060;2023-04-20T01:53:43;100637.45;;;18.22;29.36
51053;BME280;37093;37.716;-122.060;2023-04-20T01:56:12;100635.33;;;17.93;29.05
51053;BME280;37093;37.716;-122.060;2023-04-20T01:58:40;100639.75;;;17.51;29.44
51053;BME280;37093;37.716;-122.060;2023-04-20T02:01:09;100643.50;;;17.83;29.27
51053;BME280;37093;37.716;-122.060;2023-04-20T02:03:38;100643.58;;;17.72;29.10
51053;BME280;37093;37.716;-122.060;2023-04-20T02:06:06;100649.14;;;17.28;29.93
51053;BME280;37093;37.716;-122.060;2023-04-20T02:08:35;100647.41;;;17.55;29.73
51053;BME280;37093;37.716;-122.060;2023-04-20T02:11:03;100647.24;;;17.51;29.86
51053;BME280;37093;37.716;-122.060;2023-04-20T02:13:32;100651.91;;;17.45;29.80
51053;BME280;37093;37.716;-122.060;2023-04-20T02:16:00;100651.65;;;17.68;29.46
51053;BME280;37093;37.716;-122.060;2023-04-20T02:18:29;100649.62;;;17.42;29.53
51053;BME280;37093;37.716;-122.060;2023-04-20T02:20:57;100657.11;;;17.63;29.28
51053;BME280;37093;37.716;-122.060;2023-04-20T02:23:27;100657.91;;;17.65;29.57
51053;BME280;37093;37.716;-122.060;2023-04-20T02:25:55;100664.59;;;18.25;28.79
51053;BME280;37093;37.716;-122.060;2023-04-20T02:28:24;100670.33;;;18.27;29.25
51053;BME280;37093;37.716;-122.060;2023-04-20T02:30:53;100664.47;;;17.58;30.11
51053;BME280;37093;37.716;-122.060;2023-04-20T02:33:21;100665.56;;;17.83;30.08
51053;BME280;37093;37.716;-122.060;2023-04-20T02:35:50;100664.56;;;17.50;30.78
51053;BME280;37093;37.716;-122.060;2023-04-20T02:38:18;100668.75;;;17.90;30.13
51053;BME280;37093;37.716;-122.060;2023-04-20T02:40:47;100667.53;;;17.49;30.91
51053;BME280;37093;37.716;-122.060;2023-04-20T02:43:15;100668.96;;;17.42;30.85
51053;BME280;37093;37.716;-122.060;2023-04-20T02:45:44;100668.99;;;17.77;30.83
51053;BME280;37093;37.716;-122.060;2023-04-20T02:48:12;100668.99;;;18.06;30.94
51053;BME280;37093;37.716;-122.060;2023-04-20T02:50:41;100679.31;;;18.17;30.56
51053;BME280;37093;37.716;-122.060;2023-04-20T02:53:10;100682.95;;;18.19;30.88
51053;BME280;37093;37.716;-122.060;2023-04-20T02:55:38;100678.43;;;18.20;30.69
51053;BME280;37093;37.716;-122.060;2023-04-20T02:58:07;100682.00;;;18.71;30.27
51053;BME280;37093;37.716;-122.060;2023-04-20T03:00:35;100683.26;;;18.86;30.22
51053;BME280;37093;37.716;-122.060;2023-04-20T03:03:04;100689.44;;;18.77;29.72
51053;BME280;37093;37.716;-122.060;2023-04-20T03:05:32;100695.33;;;18.53;29.90
51053;BME280;37093;37.716;-122.060;2023-04-20T03:08:01;100702.82;;;18.58;29.86
51053;BME280;37093;37.716;-122.060;2023-04-20T03:10:30;100707.53;;;18.88;30.00
51053;BME280;37093;37.716;-122.060;2023-04-20T03:12:58;100713.77;;;18.87;29.98
51053;BME280;37093;37.716;-122.060;2023-04-20T03:15:27;100715.75;;;18.80;30.19
51053;BME280;37093;37.716;-122.060;2023-04-20T03:17:55;100717.66;;;18.98;30.52
51053;BME280;37093;37.716;-122.060;2023-04-20T03:20:24;100723.89;;;18.56;30.76
51053;BME280;37093;37.716;-122.060;2023-04-20T03:22:52;100725.82;;;18.73;30.77
51053;BME280;37093;37.716;-122.060;2023-04-20T03:25:22;100728.95;;;18.12;30.73
51053;BME280;37093;37.716;-122.060;2023-04-20T03:27:50;100733.72;;;18.64;30.65
51053;BME280;37093;37.716;-122.060;2023-04-20T03:30:19;100735.87;;;18.42;30.75
51053;BME280;37093;37.716;-122.060;2023-04-20T03:32:48;100737.86;;;18.68;30.68
51053;BME280;37093;37.716;-122.060;2023-04-20T03:35:16;100738.77;;;18.34;30.84
51053;BME280;37093;37.716;-122.060;2023-04-20T03:37:45;100738.20;;;18.53;30.76
51053;BME280;37093;37.716;-122.060;2023-04-20T03:40:13;100741.44;;;18.44;30.92
51053;BME280;37093;37.716;-122.060;2023-04-20T03:42:42;100739.76;;;18.43;30.76
51053;BME280;37093;37.716;-122.060;2023-04-20T03:45:11;100739.69;;;18.36;30.94
51053;BME280;37093;37.716;-122.060;2023-04-20T03:47:40;100738.93;;;18.34;30.99
51053;BME280;37093;37.716;-122.060;2023-04-20T03:50:09;100746.80;;;18.06;31.10
51053;BME280;37093;37.716;-122.060;2023-04-20T03:52:38;100750.09;;;18.27;30.98
51053;BME280;37093;37.716;-122.060;2023-04-20T03:55:07;100756.17;;;18.27;31.61
51053;BME280;37093;37.716;-122.060;2023-04-20T03:57:36;100761.59;;;18.23;31.67
51053;BME280;37093;37.716;-122.060;2023-04-20T04:00:05;100762.17;;;18.17;31.26
51053;BME280;37093;37.716;-122.060;2023-04-20T04:02:34;100764.95;;;17.88;31.30
51053;BME280;37093;37.716;-122.060;2023-04-20T04:05:03;100767.84;;;17.80;31.15
51053;BME280;37093;37.716;-122.060;2023-04-20T04:07:31;100770.49;;;17.79;31.06
51053;BME280;37093;37.716;-122.060;2023-04-20T04:09:59;100775.27;;;17.95;31.25
51053;BME280;37093;37.716;-122.060;2023-04-20T04:12:28;100773.93;;;18.17;31.13
51053;BME280;37093;37.716;-122.060;2023-04-20T04:14:57;100778.31;;;17.61;31.36
51053;BME280;37093;37.716;-122.060;2023-04-20T04:17:25;100780.77;;;17.90;30.98
51053;BME280;37093;37.716;-122.060;2023-04-20T04:19:54;100783.93;;;17.84;31.00
51053;BME280;37093;37.716;-122.060;2023-04-20T04:22:22;100783.65;;;17.79;31.24
51053;BME280;37093;37.716;-122.060;2023-04-20T04:24:51;100788.16;;;17.85;31.50
51053;BME280;37093;37.716;-122.060;2023-04-20T04:27:20;100790.97;;;17.86;31.53
51053;BME280;37093;37.716;-122.060;2023-04-20T04:29:49;100793.15;;;17.82;31.67
51053;BME280;37093;37.716;-122.060;2023-04-20T04:32:17;100797.46;;;17.32;31.61
51053;BME280;37093;37.716;-122.060;2023-04-20T04:34:46;100807.51;;;17.48;31.60
51053;BME280;37093;37.716;-122.060;2023-04-20T04:37:14;100807.90;;;17.59;32.00
51053;BME280;37093;37.716;-122.060;2023-04-20T04:39:43;100813.02;;;17.00;33.22
51053;BME280;37093;37.716;-122.060;2023-04-20T04:42:12;100814.29;;;17.01;33.06
51053;BME280;37093;37.716;-122.060;2023-04-20T04:44:40;100819.76;;;17.29;32.57
51053;BME280;37093;37.716;-122.060;2023-04-20T04:47:08;100819.56;;;16.90;32.12
51053;BME280;37093;37.716;-122.060;2023-04-20T04:49:37;100819.16;;;17.30;32.39
51053;BME280;37093;37.716;-122.060;2023-04-20T04:52:07;100821.98;;;17.14;32.27
51053;BME280;37093;37.716;-122.060;2023-04-20T04:54:35;100825.41;;;16.88;32.16
51053;BME280;37093;37.716;-122.060;2023-04-20T04:57:04;100828.91;;;17.01;32.21
51053;BME280;37093;37.716;-122.060;2023-04-20T04:59:33;100829.48;;;16.96;32.14
51053;BME280;37093;37.716;-122.060;2023-04-20T05:02:01;100831.53;;;16.95;32.11
51053;BME280;37093;37.716;-122.060;2023-04-20T05:04:29;100834.71;;;16.85;32.54
51053;BME280;37093;37.716;-122.060;2023-04-20T05:06:58;100838.02;;;16.82;32.34
51053;BME280;37093;37.716;-122.060;2023-04-20T05:09:26;100831.97;;;16.77;32.64
51053;BME280;37093;37.716;-122.060;2023-04-20T05:11:55;100831.75;;;16.55;32.79
51053;BME280;37093;37.716;-122.060;2023-04-20T05:14:24;100831.27;;;16.49;32.65
51053;BME280;37093;37.716;-122.060;2023-04-20T05:16:52;100833.00;;;16.76;32.78
51053;BME280;37093;37.716;-122.060;2023-04-20T05:19:20;100831.20;;;16.68;33.26
51053;BME280;37093;37.716;-122.060;2023-04-20T05:21:49;100830.38;;;16.53;32.96
51053;BME280;37093;37.716;-122.060;2023-04-20T05:24:17;100832.10;;;16.69;33.57
51053;BME280;37093;37.716;-122.060;2023-04-20T05:26:46;100840.16;;;16.56;33.68
51053;BME280;37093;37.716;-122.060;2023-04-20T05:29:15;100841.25;;;16.54;33.48
51053;BME280;37093;37.716;-122.060;2023-04-20T05:31:43;100840.89;;;16.30;33.27
51053;BME280;37093;37.716;-122.060;2023-04-20T05:34:11;100837.66;;;16.29;32.93
51053;BME280;37093;37.716;-122.060;2023-04-20T05:36:40;100834.08;;;16.35;32.67
51053;BME280;37093;37.716;-122.060;2023-04-20T05:39:08;100831.76;;;16.62;32.95
51053;BME280;37093;37.716;-122.060;2023-04-20T05:41:37;100833.06;;;16.10;33.20
51053;BME280;37093;37.716;-122.060;2023-04-20T05:44:06;100837.03;;;16.28;32.95
51053;BME280;37093;37.716;-122.060;2023-04-20T05:46:34;100842.58;;;16.29;32.66
51053;BME280;37093;37.716;-122.060;2023-04-20T05:49:03;100844.67;;;16.02;32.35
51053;BME280;37093;37.716;-122.060;2023-04-20T05:51:31;100846.96;;;16.48;32.63
51053;BME280;37093;37.716;-122.060;2023-04-20T05:54:00;100847.61;;;16.12;33.04
51053;BME280;37093;37.716;-122.060;2023-04-20T05:56:29;100850.63;;;16.08;32.98
51053;BME280;37093;37.716;-122.060;2023-04-20T05:58:58;100856.10;;;16.00;32.97
51053;BME280;37093;37.716;-122.060;2023-04-20T06:01:27;100861.13;;;15.85;32.99
51053;BME280;37093;37.716;-122.060;2023-04-20T06:03:55;100860.13;;;16.06;32.95
51053;BME280;37093;37.716;-122.060;2023-04-20T06:06:23;100858.03;;;15.98;33.35
51053;BME280;37093;37.716;-122.060;2023-04-20T06:08:52;100851.05;;;15.92;33.43
51053;BME280;37093;37.716;-122.060;2023-04-20T06:11:20;100854.03;;;15.82;33.92
51053;BME280;37093;37.716;-122.060;2023-04-20T06:13:48;100856.08;;;15.77;34.16
51053;BME280;37093;37.716;-122.060;2023-04-20T06:16:16;100855.46;;;15.74;34.11
51053;BME280;37093;37.716;-122.060;2023-04-20T06:18:45;100861.14;;;15.70;34.10
51053;BME280;37093;37.716;-122.060;2023-04-20T06:21:14;100863.70;;;15.70;34.01
51053;BME280;37093;37.716;-122.060;2023-04-20T06:23:43;100866.30;;;15.64;33.64
51053;BME280;37093;37.716;-122.060;2023-04-20T06:26:11;100870.95;;;15.60;33.81
51053;BME280;37093;37.716;-122.060;2023-04-20T06:28:40;100875.16;;;15.54;33.86
51053;BME280;37093;37.716;-122.060;2023-04-20T06:31:09;100881.54;;;15.32;34.67
51053;BME280;37093;37.716;-122.060;2023-04-20T06:33:37;100880.40;;;15.11;34.92
51053;BME280;37093;37.716;-122.060;2023-04-20T06:36:07;100879.76;;;15.54;35.24
51053;BME280;37093;37.716;-122.060;2023-04-20T06:38:36;100885.38;;;15.53;34.84
51053;BME280;37093;37.716;-122.060;2023-04-20T06:41:04;100887.31;;;15.23;34.63
51053;BME280;37093;37.716;-122.060;2023-04-20T06:43:32;100894.56;;;15.41;35.08
51053;BME280;37093;37.716;-122.060;2023-04-20T06:46:01;100887.27;;;14.81;36.14
51053;BME280;37093;37.716;-122.060;2023-04-20T06:48:30;100883.01;;;15.01;35.19
51053;BME280;37093;37.716;-122.060;2023-04-20T06:50:58;100881.88;;;14.74;35.43
51053;BME280;37093;37.716;-122.060;2023-04-20T06:53:27;100885.83;;;15.02;35.15
51053;BME280;37093;37.716;-122.060;2023-04-20T06:55:56;100887.83;;;14.81;35.11
51053;BME280;37093;37.716;-122.060;2023-04-20T06:58:24;100884.70;;;15.03;35.36
51053;BME280;37093;37.716;-122.060;2023-04-20T07:01:14;100882.31;;;13.80;35.65
51053;BME280;37093;37.716;-122.060;2023-04-20T07:03:44;100885.96;;;14.11;34.68
51053;BME280;37093;37.716;-122.060;2023-04-20T07:06:12;100879.05;;;15.44;33.41
51053;BME280;37093;37.716;-122.060;2023-04-20T07:08:40;100883.03;;;16.09;33.67
51053;BME280;37093;37.716;-122.060;2023-04-20T07:11:08;100886.46;;;15.22;35.07
51053;BME280;37093;37.716;-122.060;2023-04-20T07:13:37;100889.89;;;14.36;36.35
51053;BME280;37093;37.716;-122.060;2023-04-20T07:16:06;100891.45;;;14.26;37.70
51053;BME280;37093;37.716;-122.060;2023-04-20T07:18:34;100889.47;;;14.15;37.19
51053;BME280;37093;37.716;-122.060;2023-04-20T07:21:03;100888.32;;;14.75;36.36
51053;BME280;37093;37.716;-122.060;2023-04-20T07:23:31;100883.66;;;14.39;36.37
51053;BME280;37093;37.716;-122.060;2023-04-20T07:26:00;100885.38;;;14.41;36.32
51053;BME280;37093;37.716;-122.060;2023-04-20T07:28:28;100884.24;;;14.45;35.91
51053;BME280;37093;37.716;-122.060;2023-04-20T07:30:57;100885.54;;;14.68;35.74
51053;BME280;37093;37.716;-122.060;2023-04-20T07:33:26;100882.97;;;14.65;35.97
51053;BME280;37093;37.716;-122.060;2023-04-20T07:35:54;100885.74;;;14.16;37.01
51053;BME280;37093;37.716;-122.060;2023-04-20T07:38:23;100887.19;;;14.23;36.21
51053;BME280;37093;37.716;-122.060;2023-04-20T07:40:52;100890.82;;;14.29;35.94
51053;BME280;37093;37.716;-122.060;2023-04-20T07:43:20;100892.91;;;14.36;35.99
51053;BME280;37093;37.716;-122.060;2023-04-20T07:45:49;100889.73;;;13.89;37.08
51053;BME280;37093;37.716;-122.060;2023-04-20T07:48:18;100888.42;;;12.96;39.32
51053;BME280;37093;37.716;-122.060;2023-04-20T07:50:46;100894.74;;;13.45;38.57
51053;BME280;37093;37.716;-122.060;2023-04-20T07:53:15;100892.52;;;13.78;37.83
51053;BME280;37093;37.716;-122.060;2023-04-20T07:55:43;100893.45;;;13.77;36.73
51053;BME280;37093;37.716;-122.060;2023-04-20T07:58:13;100891.04;;;13.99;36.49
51053;BME280;37093;37.716;-122.060;2023-04-20T08:00:41;100894.47;;;13.82;36.33
51053;BME280;37093;37.716;-122.060;2023-04-20T08:03:10;100894.30;;;14.02;36.96
51053;BME280;37093;37.716;-122.060;2023-04-20T08:05:39;100903.66;;;13.93;37.71
51053;BME280;37093;37.716;-122.060;2023-04-20T08:08:08;100903.60;;;13.72;37.63
51053;BME280;37093;37.716;-122.060;2023-04-20T08:10:37;100901.89;;;13.71;37.77
51053;BME280;37093;37.716;-122.060;2023-04-20T08:13:05;100899.02;;;14.05;37.49
51053;BME280;37093;37.716;-122.060;2023-04-20T08:15:34;100900.23;;;13.97;37.71
51053;BME280;37093;37.716;-122.060;2023-04-20T08:18:02;100901.34;;;13.81;37.40
51053;BME280;37093;37.716;-122.060;2023-04-20T08:20:31;100901.96;;;13.97;37.43
51053;BME280;37093;37.716;-122.060;2023-04-20T08:22:59;100897.03;;;13.94;37.79
51053;BME280;37093;37.716;-122.060;2023-04-20T08:25:28;100896.61;;;13.81;39.00
51053;BME280;37093;37.716;-122.060;2023-04-20T08:27:57;100891.09;;;13.79;38.97
51053;BME280;37093;37.716;-122.060;2023-04-20T08:30:27;100885.46;;;13.59;38.88
51053;BME280;37093;37.716;-122.060;2023-04-20T08:32:54;100884.13;;;13.57;39.13
51053;BME280;37093;37.716;-122.060;2023-04-20T08:35:24;100881.05;;;13.46;39.10
51053;BME280;37093;37.716;-122.060;2023-04-20T08:37:53;100884.15;;;13.81;39.03
51053;BME280;37093;37.716;-122.060;2023-04-20T08:40:21;100888.83;;;13.76;38.97
51053;BME280;37093;37.716;-122.060;2023-04-20T08:42:50;100886.10;;;13.63;39.45
51053;BME280;37093;37.716;-122.060;2023-04-20T08:45:19;100881.53;;;13.11;40.24
51053;BME280;37093;37.716;-122.060;2023-04-20T08:47:47;100880.02;;;13.22;39.68
51053;BME280;37093;37.716;-122.060;2023-04-20T08:50:16;100881.56;;;13.10;39.74
51053;BME280;37093;37.716;-122.060;2023-04-20T08:52:46;100880.45;;;13.08;41.17
51053;BME280;37093;37.716;-122.060;2023-04-20T08:55:16;100879.49;;;12.11;42.64
51053;BME280;37093;37.716;-122.060;2023-04-20T08:57:46;100880.11;;;11.84;44.66
51053;BME280;37093;37.716;-122.060;2023-04-20T09:00:16;100875.97;;;12.23;43.52
51053;BME280;37093;37.716;-122.060;2023-04-20T09:02:53;100881.37;;;12.45;42.32
51053;BME280;37093;37.716;-122.060;2023-04-20T09:05:25;100880.62;;;12.77;44.31
51053;BME280;37093;37.716;-122.060;2023-04-20T09:07:56;100881.84;;;12.21;43.49
51053;BME280;37093;37.716;-122.060;2023-04-20T09:10:37;100885.27;;;12.60;43.13
51053;BME280;37093;37.716;-122.060;2023-04-20T09:13:06;100888.65;;;12.31;42.94
51053;BME280;37093;37.716;-122.060;2023-04-20T09:15:35;100893.24;;;12.58;42.80
51053;BME280;37093;37.716;-122.060;2023-04-20T09:18:19;100894.19;;;12.52;42.47
51053;BME280;37093;37.716;-122.060;2023-04-20T09:20:48;100896.52;;;12.42;43.03
51053;BME280;37093;37.716;-122.060;2023-04-20T09:23:17;100898.09;;;12.28;43.11
51053;BME280;37093;37.716;-122.060;2023-04-20T09:25:49;100893.40;;;12.62;42.22
51053;BME280;37093;37.716;-122.060;2023-04-20T09:28:18;100889.47;;;12.66;42.06
51053;BME280;37093;37.716;-122.060;2023-04-20T09:30:48;100893.31;;;12.88;41.57
51053;BME280;37093;37.716;-122.060;2023-04-20T09:33:16;100892.44;;;12.51;41.29
51053;BME280;37093;37.716;-122.060;2023-04-20T09:35:45;100890.27;;;12.56;41.14
51053;BME280;37093;37.716;-122.060;2023-04-20T09:38:16;100895.80;;;13.07;40.93
51053;BME280;37093;37.716;-122.060;2023-04-20T09:40:44;100899.01;;;12.75;40.80
51053;BME280;37093;37.716;-122.060;2023-04-20T09:43:18;100899.61;;;12.80;40.88
51053;BME280;37093;37.716;-122.060;2023-04-20T09:45:47;100900.74;;;13.00;40.68
51053;BME280;37093;37.716;-122.060;2023-04-20T09:48:16;100900.66;;;12.52;40.75
51053;BME280;37093;37.716;-122.060;2023-04-20T09:50:46;100901.01;;;12.93;40.83
51053;BME280;37093;37.716;-122.060;2023-04-20T09:53:16;100902.10;;;12.96;40.73
51053;BME280;37093;37.716;-122.060;2023-04-20T09:55:46;100900.45;;;13.02;40.60
51053;BME280;37093;37.716;-122.060;2023-04-20T09:58:17;100897.10;;;12.69;40.68
51053;BME280;37093;37.716;-122.060;2023-04-20T10:00:46;100888.46;;;12.77;40.94
51053;BME280;37093;37.716;-122.060;2023-04-20T10:03:16;100888.08;;;12.36;40.99
51053;BME280;37093;37.716;-122.060;2023-04-20T10:05:45;100890.62;;;12.68;40.25
51053;BME280;37093;37.716;-122.060;2023-04-20T10:08:15;100893.99;;;12.72;40.35
51053;BME280;37093;37.716;-122.060;2023-04-20T10:10:45;100891.61;;;13.03;40.69
51053;BME280;37093;37.716;-122.060;2023-04-20T10:13:14;100889.38;;;12.94;40.73
51053;BME280;37093;37.716;-122.060;2023-04-20T10:15:43;100888.12;;;12.95;40.55
51053;BME280;37093;37.716;-122.060;2023-04-20T10:18:17;100889.61;;;12.86;40.35
51053;BME280;37093;37.716;-122.060;2023-04-20T10:20:46;100899.25;;;12.95;40.31
51053;BME280;37093;37.716;-122.060;2023-04-20T10:23:14;100904.93;;;12.56;40.74
51053;BME280;37093;37.716;-122.060;2023-04-20T10:25:54;100907.55;;;12.52;40.84
51053;BME280;37093;37.716;-122.060;2023-04-20T10:28:22;100908.14;;;12.81;40.85
51053;BME280;37093;37.716;-122.060;2023-04-20T10:30:52;100905.46;;;12.85;41.45
51053;BME280;37093;37.716;-122.060;2023-04-20T10:33:20;100895.43;;;12.90;41.32
51053;BME280;37093;37.716;-122.060;2023-04-20T10:35:52;100896.01;;;13.06;41.93
51053;BME280;37093;37.716;-122.060;2023-04-20T10:38:29;100894.29;;;12.88;41.67
51053;BME280;37093;37.716;-122.060;2023-04-20T10:41:05;100887.13;;;12.70;41.28
51053;BME280;37093;37.716;-122.060;2023-04-20T10:43:33;100886.30;;;13.02;40.82
51053;BME280;37093;37.716;-122.060;2023-04-20T10:46:02;100888.89;;;12.79;40.57
51053;BME280;37093;37.716;-122.060;2023-04-20T10:48:50;100886.21;;;13.13;41.03
51053;BME280;37093;37.716;-122.060;2023-04-20T10:51:18;100888.60;;;12.82;40.96
51053;BME280;37093;37.716;-122.060;2023-04-20T10:53:58;100884.68;;;13.12;40.84
51053;BME280;37093;37.716;-122.060;2023-04-20T10:56:26;100881.68;;;12.70;40.28
51053;BME280;37093;37.716;-122.060;2023-04-20T10:59:05;100878.39;;;12.94;40.44
51053;BME280;37093;37.716;-122.060;2023-04-20T11:01:34;100879.44;;;12.96;40.81
51053;BME280;37093;37.716;-122.060;2023-04-20T11:04:03;100880.87;;;12.84;41.28
51053;BME280;37093;37.716;-122.060;2023-04-20T11:06:31;100879.64;;;12.57;42.24
51053;BME280;37093;37.716;-122.060;2023-04-20T11:09:00;100879.88;;;12.45;41.56
51053;BME280;37093;37.716;-122.060;2023-04-20T11:11:28;100878.41;;;12.78;40.89
51053;BME280;37093;37.716;-122.060;2023-04-20T11:14:12;100872.88;;;12.28;40.53
51053;BME280;37093;37.716;-122.060;2023-04-20T11:16:51;100875.92;;;12.78;40.72
51053;BME280;37093;37.716;-122.060;2023-04-20T11:19:23;100874.83;;;12.40;40.91
51053;BME280;37093;37.716;-122.060;2023-04-20T11:21:52;100876.55;;;12.35;41.34
51053;BME280;37093;37.716;-122.060;2023-04-20T11:24:22;100876.18;;;12.35;41.07
51053;BME280;37093;37.716;-122.060;2023-04-20T11:26:52;100876.62;;;12.48;40.96
51053;BME280;37093;37.716;-122.060;2023-04-20T11:29:29;100877.77;;;12.18;41.67
51053;BME280;37093;37.716;-122.060;2023-04-20T11:31:59;100872.29;;;11.85;41.35
51053;BME280;37093;37.716;-122.060;2023-04-20T11:34:27;100874.08;;;11.98;41.82
51053;BME280;37093;37.716;-122.060;2023-04-20T11:37:03;100872.00;;;12.06;41.68
51053;BME280;37093;37.716;-122.060;2023-04-20T11:39:32;100870.31;;;12.17;40.87
51053;BME280;37093;37.716;-122.060;2023-04-20T11:42:00;100868.92;;;12.20;40.77
51053;BME280;37093;37.716;-122.060;2023-04-20T11:44:28;100866.62;;;12.24;40.77
51053;BME280;37093;37.716;-122.060;2023-04-20T11:46:56;100863.93;;;12.35;40.40
51053;BME280;37093;37.716;-122.060;2023-04-20T11:49:27;100866.87;;;12.43;40.31
51053;BME280;37093;37.716;-122.060;2023-04-20T11:51:56;100860.53;;;12.49;40.15
51053;BME280;37093;37.716;-122.060;2023-04-20T11:54:24;100857.87;;;12.41;39.89
51053;BME280;37093;37.716;-122.060;2023-04-20T11:56:53;100860.23;;;12.18;39.68
51053;BME280;37093;37.716;-122.060;2023-04-20T11:59:21;100863.84;;;12.25;40.58
51053;BME280;37093;37.716;-122.060;2023-04-20T12:01:49;100868.68;;;12.08;41.29
51053;BME280;37093;37.716;-122.060;2023-04-20T12:04:18;100874.93;;;12.02;41.31
51053;BME280;37093;37.716;-122.060;2023-04-20T12:06:47;100877.67;;;12.13;40.59
51053;BME280;37093;37.716;-122.060;2023-04-20T12:09:16;100880.92;;;12.20;40.46
51053;BME280;37093;37.716;-122.060;2023-04-20T12:11:44;100884.97;;;12.20;40.24
51053;BME280;37093;37.716;-122.060;2023-04-20T12:14:13;100880.32;;;12.23;39.76
51053;BME280;37093;37.716;-122.060;2023-04-20T12:16:42;100878.61;;;12.08;40.64
51053;BME280;37093;37.716;-122.060;2023-04-20T12:19:10;100885.77;;;12.11;40.85
51053;BME280;37093;37.716;-122.060;2023-04-20T12:21:39;100888.89;;;12.16;40.83
51053;BME280;37093;37.716;-122.060;2023-04-20T12:24:07;100890.00;;;12.30;40.72
51053;BME280;37093;37.716;-122.060;2023-04-20T12:26:36;100895.21;;;11.98;41.75
51053;BME280;37093;37.716;-122.060;2023-04-20T12:29:05;100896.77;;;11.85;41.89
51053;BME280;37093;37.716;-122.060;2023-04-20T12:31:33;100891.21;;;11.73;40.85